createdAt,value
2023-03-29T00:00:20.508Z,24.45
2023-03-29T00:04:20.729Z,24.47
2023-03-29T00:08:20.862Z,24.50
2023-03-29T00:12:21.330Z,24.47
2023-03-29T00:16:21.384Z,24.48
2023-03-29T00:20:21.061Z,24.47
2023-03-29T00:24:21.266Z,24.46
2023-03-29T00:28:21.359Z,24.46
2023-03-29T00:32:21.399Z,24.49
2023-03-29T00:36:21.383Z,24.46
2023-03-29T00:40:21.292Z,24.45
2023-03-29T00:44:21.866Z,24.40
2023-03-29T00:48:21.865Z,24.45
2023-03-29T00:52:21.432Z,24.43
2023-03-29T00:56:21.864Z,24.44
2023-03-29T01:00:21.459Z,24.45
2023-03-29T01:04:21.861Z,24.40
2023-03-29T01:08:21.346Z,24.49
2023-03-29T01:12:21.349Z,24.41
2023-03-29T01:16:21.374Z,24.40
2023-03-29T01:20:21.372Z,24.44
2023-03-29T01:24:21.263Z,24.47
2023-03-29T01:28:21.365Z,24.45
2023-03-29T01:32:21.423Z,24.51
2023-03-29T01:36:21.236Z,24.51
2023-03-29T01:40:21.406Z,24.48
2023-03-29T01:44:21.392Z,24.49
2023-03-29T01:48:21.393Z,24.46
2023-03-29T01:52:21.167Z,24.46
2023-03-29T01:56:21.207Z,24.47
2023-03-29T02:00:21.452Z,24.48
2023-03-29T02:04:21.415Z,24.50
2023-03-29T02:08:21.132Z,24.55
2023-03-29T02:12:21.106Z,24.58
2023-03-29T02:16:21.484Z,24.58
2023-03-29T02:20:21.414Z,24.57
2023-03-29T02:24:21.137Z,24.60
2023-03-29T02:28:21.432Z,24.60
2023-03-29T02:32:21.149Z,24.61
2023-03-29T02:36:21.414Z,24.63
2023-03-29T02:40:21.394Z,24.66
2023-03-29T02:44:21.436Z,24.67
2023-03-29T02:48:21.096Z,24.69
2023-03-29T02:52:21.078Z,24.72
2023-03-29T02:56:21.937Z,24.72
2023-03-29T03:00:21.438Z,24.78
2023-03-29T03:04:21.491Z,24.74
2023-03-29T03:08:21.427Z,24.79
2023-03-29T03:12:21.250Z,24.80
2023-03-29T03:16:21.332Z,24.82
2023-03-29T03:20:21.495Z,24.83
2023-03-29T03:24:21.454Z,24.86
2023-03-29T03:28:21.251Z,24.88
2023-03-29T03:32:21.290Z,24.88
2023-03-29T03:36:21.417Z,24.88
2023-03-29T03:40:21.432Z,24.89
2023-03-29T03:44:21.426Z,24.91
2023-03-29T03:48:21.495Z,24.91
2023-03-29T03:52:21.518Z,24.94
2023-03-29T03:56:21.966Z,24.97
2023-03-29T04:00:21.981Z,24.98
2023-03-29T04:04:21.966Z,24.98
2023-03-29T04:08:21.593Z,24.98
2023-03-29T04:12:21.978Z,25.02
2023-03-29T04:16:21.986Z,25.01
2023-03-29T04:20:21.942Z,25.03
2023-03-29T04:24:21.597Z,25.03
2023-03-29T04:28:21.642Z,25.05
2023-03-29T04:32:22.013Z,25.04
2023-03-29T04:36:21.997Z,25.04
2023-03-29T04:40:21.948Z,25.07
2023-03-29T04:44:21.988Z,25.12
2023-03-29T04:48:21.774Z,25.12
2023-03-29T04:52:24.401Z,25.07
2023-03-29T04:56:21.976Z,25.11
2023-03-29T05:00:21.996Z,25.11
2023-03-29T05:04:21.686Z,25.13
2023-03-29T05:08:21.977Z,25.10
2023-03-29T05:12:29.553Z,25.19
2023-03-29T05:16:21.715Z,25.14
2023-03-29T05:20:22.047Z,25.17
2023-03-29T05:24:21.438Z,25.19
2023-03-29T05:28:21.510Z,25.17
2023-03-29T05:32:21.530Z,25.21
2023-03-29T05:36:21.450Z,25.20
2023-03-29T05:40:22.065Z,25.22
2023-03-29T05:44:21.637Z,25.30
2023-03-29T05:48:22.034Z,26.98
2023-03-29T05:52:22.074Z,26.27
2023-03-29T05:56:21.840Z,27.61
2023-03-29T06:00:22.038Z,27.96
2023-03-29T06:04:22.038Z,29.10
2023-03-29T06:08:22.029Z,29.03
2023-03-29T06:12:22.053Z,30.25
2023-03-29T06:16:22.042Z,31.80
2023-03-29T06:20:21.641Z,32.23
2023-03-29T06:24:22.539Z,33.25
2023-03-29T06:28:22.055Z,32.75
2023-03-29T06:32:21.570Z,32.50
2023-03-29T06:36:21.540Z,33.25
2023-03-29T06:40:21.606Z,33.95
2023-03-29T06:44:21.540Z,34.24
2023-03-29T06:48:21.593Z,34.62
2023-03-29T06:52:21.553Z,34.17
2023-03-29T06:56:21.590Z,32.96
2023-03-29T07:00:21.302Z,27.02
2023-03-29T07:04:21.437Z,27.24
2023-03-29T07:08:22.067Z,27.75
2023-03-29T07:12:22.092Z,27.96
2023-03-29T07:16:21.998Z,27.56
2023-03-29T07:20:22.560Z,27.32
2023-03-29T07:24:21.965Z,27.22
2023-03-29T07:28:29.117Z,27.29
2023-03-29T07:32:22.048Z,27.27
2023-03-29T07:36:21.960Z,27.00
2023-03-29T07:40:22.068Z,28.40
2023-03-29T07:44:21.897Z,29.01
2023-03-29T07:48:22.086Z,28.78
2023-03-29T07:52:22.088Z,29.29
2023-03-29T07:56:21.746Z,29.86
2023-03-29T08:00:22.114Z,30.88
2023-03-29T08:04:22.187Z,31.48
2023-03-29T08:08:22.093Z,31.95
2023-03-29T08:12:24.494Z,32.03
2023-03-29T08:16:22.127Z,32.43
2023-03-29T08:20:22.130Z,32.91
2023-03-29T08:24:22.117Z,33.22
2023-03-29T08:28:22.093Z,33.17
2023-03-29T08:32:22.061Z,33.83
2023-03-29T08:36:22.123Z,34.27
2023-03-29T08:40:22.110Z,34.73
2023-03-29T08:44:22.143Z,31.84
2023-03-29T08:48:22.126Z,31.24
2023-03-29T08:52:21.719Z,29.09
2023-03-29T08:56:22.133Z,29.15
2023-03-29T09:00:22.118Z,28.48
2023-03-29T09:04:22.107Z,28.67
2023-03-29T09:08:21.617Z,28.34
2023-03-29T09:12:21.656Z,28.31
2023-03-29T09:16:21.925Z,28.35
2023-03-29T09:20:22.121Z,28.10
2023-03-29T09:24:22.136Z,28.12
2023-03-29T09:28:22.034Z,28.50
2023-03-29T09:32:22.123Z,28.61
2023-03-29T09:36:22.125Z,28.62
2023-03-29T09:40:22.163Z,28.71
2023-03-29T09:44:30.758Z,28.57
2023-03-29T09:48:22.821Z,28.56
2023-03-29T09:52:22.156Z,28.88
2023-03-29T09:56:21.967Z,28.96
2023-03-29T10:00:21.990Z,29.40
2023-03-29T10:04:21.907Z,29.34
2023-03-29T10:08:21.835Z,29.50
2023-03-29T10:12:21.836Z,29.55
2023-03-29T10:16:21.808Z,29.62
2023-03-29T10:20:21.715Z,29.64
2023-03-29T10:24:21.683Z,29.67
2023-03-29T10:28:21.640Z,29.76
2023-03-29T10:32:21.602Z,29.84
2023-03-29T10:36:21.626Z,29.97
2023-03-29T10:40:21.657Z,30.05
2023-03-29T10:44:21.589Z,29.93
2023-03-29T10:48:22.671Z,30.03
2023-03-29T10:52:21.674Z,30.27
2023-03-29T10:56:21.686Z,30.20
2023-03-29T11:00:21.654Z,30.23
2023-03-29T11:04:21.427Z,30.30
2023-03-29T11:08:21.673Z,30.19
2023-03-29T11:12:21.294Z,30.20
2023-03-29T11:16:21.332Z,30.05
2023-03-29T11:20:21.696Z,30.10
2023-03-29T11:24:21.207Z,30.19
2023-03-29T11:28:21.181Z,30.16
2023-03-29T11:32:21.208Z,30.30
2023-03-29T11:36:21.110Z,30.28
2023-03-29T11:40:21.097Z,30.35
2023-03-29T11:44:21.032Z,30.65
2023-03-29T11:48:20.979Z,30.59
2023-03-29T11:52:21.022Z,30.48
2023-03-29T11:56:21.017Z,30.28
2023-03-29T12:00:20.991Z,30.37
2023-03-29T12:04:20.955Z,30.10
2023-03-29T12:08:21.169Z,30.13
2023-03-29T12:12:21.187Z,30.26
2023-03-29T12:16:20.904Z,30.29
2023-03-29T12:20:20.771Z,30.97
2023-03-29T12:24:21.215Z,31.76
2023-03-29T12:28:21.208Z,31.94
2023-03-29T12:32:20.753Z,33.84
2023-03-29T12:36:20.687Z,34.56
2023-03-29T12:40:20.645Z,34.24
2023-03-29T12:44:20.650Z,33.67
2023-03-29T12:48:20.575Z,33.38
2023-03-29T12:52:20.517Z,32.69
2023-03-29T12:56:20.488Z,32.84
2023-03-29T13:00:20.719Z,32.27
2023-03-29T13:04:27.775Z,32.40
2023-03-29T13:08:20.370Z,32.25
2023-03-29T13:12:20.383Z,32.24
2023-03-29T13:16:20.446Z,32.12
2023-03-29T13:20:20.303Z,31.90
2023-03-29T13:24:20.266Z,32.25
2023-03-29T13:28:20.237Z,32.34
2023-03-29T13:32:20.184Z,32.07
2023-03-29T13:36:20.186Z,31.78
2023-03-29T13:40:20.098Z,31.69
2023-03-29T13:44:20.282Z,31.72
2023-03-29T13:48:20.112Z,31.70
2023-03-29T13:52:20.054Z,31.73
2023-03-29T13:56:20.014Z,31.72
2023-03-29T14:00:20.002Z,31.60
2023-03-29T14:04:19.989Z,31.65
2023-03-29T14:08:19.979Z,31.62
2023-03-29T14:12:19.910Z,31.55
2023-03-29T14:16:19.924Z,31.55
2023-03-29T14:20:19.920Z,31.47
2023-03-29T14:24:19.912Z,31.52
2023-03-29T14:28:20.296Z,31.53
2023-03-29T14:32:19.939Z,31.51
2023-03-29T14:36:20.046Z,31.47
2023-03-29T14:40:20.317Z,31.47
2023-03-29T14:44:19.910Z,31.39
2023-03-29T14:48:20.344Z,31.39
2023-03-29T14:52:19.923Z,31.38
2023-03-29T14:56:20.291Z,31.33
2023-03-29T15:00:20.007Z,31.29
2023-03-29T15:04:20.360Z,31.37
2023-03-29T15:08:20.315Z,31.27
2023-03-29T15:12:20.117Z,31.31
2023-03-29T15:16:20.190Z,31.29
2023-03-29T15:20:20.370Z,31.25
2023-03-29T15:24:20.184Z,31.25
2023-03-29T15:28:20.337Z,31.24
2023-03-29T15:32:20.287Z,31.22
2023-03-29T15:36:20.417Z,31.19
2023-03-29T15:40:20.823Z,31.19
2023-03-29T15:44:20.494Z,31.25
2023-03-29T15:48:20.833Z,31.21
2023-03-29T15:52:20.614Z,31.22
2023-03-29T15:56:20.729Z,31.22
2023-03-29T16:00:20.849Z,31.14
2023-03-29T16:04:20.836Z,31.10
2023-03-29T16:08:21.344Z,31.09
2023-03-29T16:12:20.982Z,31.07
2023-03-29T16:16:21.099Z,31.07
2023-03-29T16:20:21.121Z,31.07
2023-03-29T16:24:21.225Z,31.06
2023-03-29T16:28:21.306Z,31.08
2023-03-29T16:32:21.413Z,31.10
2023-03-29T16:36:21.537Z,31.10
2023-03-29T16:40:21.648Z,31.12
2023-03-29T16:44:23.566Z,31.58
2023-03-29T16:48:21.875Z,31.36
2023-03-29T16:52:21.868Z,31.65
2023-03-29T16:56:21.872Z,31.74
2023-03-29T17:00:22.341Z,32.65
2023-03-29T17:04:22.056Z,32.43
2023-03-29T17:08:22.113Z,32.61
2023-03-29T17:12:21.993Z,32.99
2023-03-29T17:16:22.446Z,33.34
2023-03-29T17:20:21.903Z,33.62
2023-03-29T17:24:22.351Z,33.50
2023-03-29T17:28:21.827Z,33.74
2023-03-29T17:32:21.835Z,33.81
2023-03-29T17:36:21.883Z,33.90
2023-03-29T17:40:21.735Z,33.66
2023-03-29T17:44:21.893Z,33.61
2023-03-29T17:48:21.693Z,34.29
2023-03-29T17:52:21.845Z,34.26
2023-03-29T17:56:21.601Z,34.26
2023-03-29T18:00:21.885Z,34.17
2023-03-29T18:04:21.555Z,34.24
2023-03-29T18:08:21.895Z,34.24
2023-03-29T18:12:21.911Z,34.23
2023-03-29T18:16:21.918Z,34.23
2023-03-29T18:20:21.882Z,34.57
2023-03-29T18:24:21.749Z,34.69
2023-03-29T18:28:21.874Z,34.73
2023-03-29T18:32:22.407Z,34.45
2023-03-29T18:36:22.442Z,34.62
2023-03-29T18:40:22.189Z,35.10
2023-03-29T18:44:22.324Z,35.49
2023-03-29T18:48:29.910Z,35.53
2023-03-29T18:52:22.444Z,35.61
2023-03-29T18:56:22.416Z,35.75
2023-03-29T19:00:22.269Z,35.88
2023-03-29T19:04:23.072Z,36.01
2023-03-29T19:08:22.444Z,36.10
2023-03-29T19:12:22.423Z,36.03
2023-03-29T19:16:22.250Z,35.99
2023-03-29T19:20:22.913Z,36.31
2023-03-29T19:24:22.319Z,36.08
2023-03-29T19:28:22.476Z,36.22
2023-03-29T19:32:22.470Z,36.19
2023-03-29T19:36:22.964Z,36.22
2023-03-29T19:40:22.595Z,36.47
2023-03-29T19:44:22.923Z,36.39
2023-03-29T19:48:24.422Z,36.24
2023-03-29T19:52:22.745Z,36.43
2023-03-29T19:56:22.929Z,36.41
2023-03-29T20:00:22.820Z,36.41
2023-03-29T20:04:22.978Z,36.25
2023-03-29T20:08:23.439Z,36.19
2023-03-29T20:12:23.121Z,36.16
2023-03-29T20:16:23.512Z,36.12
2023-03-29T20:20:23.443Z,36.12
2023-03-29T20:24:23.650Z,36.09
2023-03-29T20:28:23.995Z,36.05
2023-03-29T20:32:24.033Z,36.03
2023-03-29T20:36:24.574Z,35.98
2023-03-29T20:40:24.423Z,35.94
2023-03-29T20:44:24.475Z,35.91
2023-03-29T20:48:24.498Z,35.82
2023-03-29T20:52:24.318Z,35.81
2023-03-29T20:56:24.470Z,35.76
2023-03-29T21:00:24.230Z,35.70
2023-03-29T21:04:24.166Z,35.64
2023-03-29T21:08:24.480Z,35.61
2023-03-29T21:12:24.094Z,35.56
2023-03-29T21:16:24.533Z,35.51
2023-03-29T21:20:24.218Z,35.44
2023-03-29T21:24:24.106Z,35.35
2023-03-29T21:28:24.476Z,35.36
2023-03-29T21:32:24.065Z,35.29
2023-03-29T21:36:24.017Z,35.26
2023-03-29T21:40:23.963Z,35.20
2023-03-29T21:44:24.024Z,35.15
2023-03-29T21:48:23.988Z,35.11
2023-03-29T21:52:24.006Z,35.07
2023-03-29T21:56:23.837Z,35.03
2023-03-29T22:00:23.990Z,34.98
2023-03-29T22:04:35.931Z,34.95
2023-03-29T22:08:25.491Z,34.91
2023-03-29T22:12:24.013Z,34.90
2023-03-29T22:16:24.054Z,34.83
2023-03-29T22:20:24.527Z,34.75
2023-03-29T22:24:24.178Z,34.72
2023-03-29T22:28:24.512Z,34.69
2023-03-29T22:32:24.527Z,34.68
2023-03-29T22:36:24.266Z,34.61
2023-03-29T22:40:24.318Z,34.57
2023-03-29T22:44:24.534Z,34.55
2023-03-29T22:48:24.413Z,34.51
2023-03-29T22:52:24.619Z,34.47
2023-03-29T22:56:24.413Z,34.41
2023-03-29T23:00:24.420Z,34.37
2023-03-29T23:04:24.567Z,34.34
2023-03-29T23:08:24.386Z,34.33
2023-03-29T23:12:24.375Z,34.29
2023-03-29T23:16:24.634Z,34.27
2023-03-29T23:20:24.547Z,34.22
2023-03-29T23:24:24.532Z,34.19
2023-03-29T23:28:24.326Z,34.16
2023-03-29T23:32:24.382Z,34.13
2023-03-29T23:36:24.542Z,34.11
2023-03-29T23:40:24.592Z,34.07
2023-03-29T23:44:24.545Z,34.05
2023-03-29T23:48:24.304Z,34.02
2023-03-29T23:52:24.293Z,33.96
2023-03-29T23:56:24.610Z,33.98
